createdAt,value
2022-08-07T02:33:08.999Z,0.1
2022-08-07T02:35:01.146Z,0.2
2022-08-07T02:36:27.677Z,0.3
2022-08-07T02:38:00.849Z,0.4
2022-08-07T02:39:00.961Z,0.5
2022-08-07T02:41:00.953Z,0.6
2022-08-07T02:42:00.883Z,0.7
2022-08-07T02:43:00.889Z,0.8
2022-08-07T02:44:00.885Z,0.9
2022-08-07T02:45:57.981Z,1.1
2022-08-07T02:46:02.301Z,1.2
2022-08-07T02:47:01.091Z,1.3
2022-08-07T02:48:01.736Z,1.5
2022-08-07T02:49:03.259Z,1.6
2022-08-07T02:50:01.134Z,1.8
2022-08-07T02:51:00.880Z,2.0
2022-08-07T02:52:00.881Z,2.2
2022-08-07T02:53:03.340Z,2.5
2022-08-07T02:54:00.881Z,2.9
2022-08-07T02:56:02.685Z,3.9
2022-08-07T02:57:00.882Z,4.5
2022-08-07T02:58:00.893Z,5.1
2022-08-07T02:59:00.915Z,5.8
2022-08-07T03:01:00.941Z,7.8
2022-08-07T03:02:01.216Z,8.8
2022-08-07T03:03:05.912Z,10.2
2022-08-07T03:04:03.309Z,11.6
2022-08-07T03:05:07.315Z,13.6
2022-08-07T03:06:05.437Z,15.6
2022-08-07T03:07:03.307Z,17.6
2022-08-07T03:08:04.752Z,20.4
2022-08-07T03:09:00.884Z,23.2
2022-08-07T03:10:04.100Z,27.1
2022-08-07T03:11:01.152Z,31.1
2022-08-07T03:12:02.672Z,35.0
2022-08-07T03:13:00.891Z,40.6
2022-08-07T03:14:01.703Z,46.2
2022-08-07T03:16:00.902Z,61.9
2022-08-07T03:17:00.881Z,69.8
2022-08-07T03:18:00.888Z,80.9
2022-08-07T03:19:00.890Z,91.9
2022-08-07T03:21:00.883Z,123.0
2022-08-07T03:22:00.918Z,138.5
2022-08-07T03:23:00.895Z,159.9
2022-08-07T03:24:18.544Z,181.3
2022-08-07T03:25:01.033Z,209.2
2022-08-07T03:26:00.892Z,237.1
2022-08-07T03:27:00.917Z,264.9
2022-08-07T03:28:09.297Z,299.8
2022-08-07T03:29:00.868Z,334.7
2022-08-07T03:31:00.900Z,421.5
2022-08-07T03:32:00.939Z,464.9
2022-08-07T03:33:01.082Z,519.1
2022-08-07T03:34:00.889Z,573.4
2022-08-07T03:35:18.258Z,639.8
2022-08-07T03:36:01.924Z,706.2
2022-08-07T03:37:00.891Z,772.6
2022-08-07T03:38:00.886Z,852.5
2022-08-07T03:39:05.189Z,932.5
2022-08-07T03:40:13.561Z,1026.9
2022-08-07T03:41:00.929Z,1121.3
2022-08-07T03:42:00.895Z,1215.7
2022-08-07T03:43:00.902Z,1325.9
2022-08-07T03:44:00.904Z,1436.2
2022-08-07T03:46:00.903Z,1688.6
2022-08-07T03:47:10.598Z,1814.8
2022-08-07T03:48:00.909Z,1956.7
2022-08-07T03:49:02.357Z,2098.5
2022-08-07T03:51:00.889Z,2412.5
2022-08-07T03:52:05.894Z,2569.5
2022-08-07T03:53:00.895Z,2742.3
2022-08-07T03:54:33.630Z,2915.0
2022-08-07T03:55:06.370Z,3108.2
2022-08-07T03:56:04.227Z,3301.4
2022-08-07T03:57:07.258Z,3494.6
2022-08-07T03:58:08.651Z,3711.9
2022-08-07T03:59:07.529Z,3929.3
2022-08-07T04:01:00.994Z,4408.7
2022-08-07T04:02:00.925Z,4648.5
2022-08-07T04:03:03.751Z,4901.4
2022-08-07T04:04:00.911Z,5154.3
2022-08-07T04:06:00.905Z,5741.5
2022-08-07T04:07:00.942Z,6035.1
2022-08-07T04:08:00.901Z,6361.5
2022-08-07T04:09:00.916Z,6687.8
2022-08-07T04:10:02.086Z,6967.3
2022-08-07T04:12:15.811Z,7246.7
2022-08-07T04:12:26.159Z,7526.2
2022-08-07T04:13:00.884Z,7758.9
2022-08-07T04:14:09.609Z,7991.7
2022-08-07T04:16:00.902Z,8374.6
2022-08-07T04:17:03.042Z,8566.1
2022-08-07T04:18:31.579Z,8761.2
2022-08-07T04:19:01.928Z,8956.3
2022-08-07T04:20:01.214Z,9140.5
2022-08-07T04:21:00.909Z,9324.7
2022-08-07T04:22:05.534Z,9508.9
2022-08-07T04:23:01.224Z,9682.6
2022-08-07T04:24:02.183Z,9856.3
2022-08-07T04:25:02.010Z,10147.0
2022-08-07T04:26:00.913Z,10437.7
2022-08-07T04:27:00.920Z,10728.5
2022-08-07T04:28:01.215Z,11287.3
2022-08-07T04:29:00.918Z,11846.1
2022-08-07T04:30:21.767Z,12622.0
2022-08-07T04:31:00.892Z,13397.9
2022-08-07T04:32:02.794Z,14173.9
2022-08-07T04:33:00.913Z,15222.0
2022-08-07T04:34:00.914Z,16270.1
2022-08-07T04:35:11.618Z,17265.5
2022-08-07T04:36:00.911Z,18260.8
2022-08-07T04:37:00.919Z,19256.1
2022-08-07T04:38:03.596Z,20401.1
2022-08-07T04:39:00.945Z,21546.1
2022-08-07T04:40:02.064Z,22666.7
2022-08-07T04:41:00.923Z,23787.2
2022-08-07T04:42:00.921Z,24907.7
2022-08-07T04:43:01.461Z,25775.7
2022-08-07T04:44:10.979Z,26643.7
2022-08-07T04:46:02.125Z,27683.7
2022-08-07T04:47:04.310Z,28203.7
2022-08-07T04:48:02.960Z,28315.2
2022-08-07T04:49:01.551Z,28426.7
2022-08-07T04:50:05.369Z,28645.1
2022-08-07T04:51:00.933Z,28863.5
2022-08-07T04:52:00.915Z,29081.9
2022-08-07T04:53:00.925Z,29493.5
2022-08-07T04:54:05.975Z,29905.2
2022-08-07T04:58:08.171Z,30072.1
2022-08-07T04:58:08.425Z,29988.7
2022-08-07T04:58:08.943Z,30155.6
2022-08-07T04:58:09.162Z,29976.2
2022-08-07T04:59:17.736Z,29796.8
2022-08-07T05:00:31.619Z,29672.7
2022-08-07T05:01:00.991Z,29548.5
2022-08-07T05:02:00.925Z,29424.4
2022-08-07T05:03:00.919Z,29266.7
2022-08-07T05:04:08.073Z,29109.1
2022-08-07T05:05:52.238Z,28730.0
2022-08-07T05:06:02.078Z,28350.9
2022-08-07T05:07:00.903Z,27971.9
2022-08-07T05:08:00.912Z,27167.7
2022-08-07T05:09:02.263Z,26363.5
2022-08-07T05:11:02.494Z,25365.6
2022-08-07T05:12:02.473Z,24866.7
2022-08-07T05:13:09.819Z,24473.6
2022-08-07T05:14:45.105Z,24080.5
2022-08-07T05:16:04.658Z,23458.3
2022-08-07T05:17:01.973Z,23147.1
2022-08-07T05:18:01.483Z,23049.0
2022-08-07T05:19:00.925Z,22950.9
2022-08-07T05:21:01.253Z,22891.7
2022-08-07T05:22:01.598Z,22862.1
2022-08-07T05:23:00.992Z,22705.2
2022-08-07T05:24:01.008Z,22548.3
2022-08-07T05:25:00.940Z,22295.1
2022-08-07T05:26:11.414Z,22041.8
2022-08-07T05:27:00.985Z,21788.5
2022-08-07T05:28:15.635Z,21646.1
2022-08-07T05:29:04.178Z,21503.7
2022-08-07T05:31:01.224Z,21148.7
2022-08-07T05:32:00.971Z,20971.1
2022-08-07T05:33:02.442Z,20612.0
2022-08-07T05:34:05.043Z,20252.9
2022-08-07T05:35:03.230Z,19812.9
2022-08-07T05:36:01.141Z,19372.9
2022-08-07T05:37:00.966Z,18932.9
2022-08-07T05:38:08.268Z,18554.1
2022-08-07T05:39:09.070Z,18175.3
2022-08-07T05:40:04.935Z,18128.7
2022-08-07T05:41:01.209Z,18082.2
2022-08-07T05:42:04.528Z,18035.7
2022-08-07T05:43:00.945Z,18346.7
2022-08-07T05:44:08.943Z,18657.7
2022-08-07T05:45:25.889Z,19089.1
2022-08-07T05:46:06.147Z,19520.5
2022-08-07T05:47:01.155Z,19951.9
2022-08-07T05:48:02.291Z,20500.7
2022-08-07T05:49:00.948Z,21049.5
2022-08-07T05:50:02.411Z,21778.9
2022-08-07T05:51:01.187Z,22508.4
2022-08-07T05:52:00.989Z,23237.9
2022-08-07T05:53:01.974Z,24124.7
2022-08-07T05:54:09.166Z,25011.6
2022-08-07T05:55:14.879Z,25496.6
2022-08-07T05:56:01.751Z,25981.6
2022-08-07T05:57:00.954Z,26466.6
2022-08-07T05:58:00.959Z,26455.7
2022-08-07T05:59:00.954Z,26444.9
2022-08-07T06:00:02.025Z,26372.7
2022-08-07T06:01:01.249Z,26300.5
2022-08-07T06:02:00.994Z,26228.3
2022-08-07T06:03:00.985Z,26219.2
2022-08-07T06:04:01.510Z,26210.1
2022-08-07T06:05:01.035Z,26325.7
2022-08-07T06:06:01.154Z,26441.2
2022-08-07T06:07:03.595Z,26556.7
2022-08-07T06:08:09.227Z,26809.5
2022-08-07T06:09:00.925Z,27062.2
2022-08-07T06:10:15.720Z,28741.5
2022-08-07T06:11:03.715Z,30420.9
2022-08-07T06:12:00.953Z,32100.2
2022-08-07T06:13:00.960Z,34855.5
2022-08-07T06:14:11.185Z,37610.9
2022-08-07T06:15:07.072Z,40327.7
2022-08-07T06:16:01.153Z,43044.6
2022-08-07T06:17:00.944Z,45761.5
2022-08-07T06:18:00.952Z,48389.2
2022-08-07T06:19:00.942Z,51016.9
2022-08-07T06:20:25.308Z,53456.9
2022-08-07T06:22:12.179Z,55896.8
2022-08-07T06:22:12.299Z,58336.7
2022-08-07T06:23:01.932Z,60572.1
2022-08-07T06:24:37.381Z,62807.4
2022-08-07T06:25:03.638Z,63716.6
2022-08-07T06:26:01.157Z,64625.8
2022-08-07T06:27:03.637Z,65535.0
2022-08-07T06:28:02.691Z,65137.0
2022-08-07T06:29:01.300Z,64739.0
2022-08-07T06:30:01.401Z,64638.0
2022-08-07T06:31:02.191Z,64537.0
2022-08-07T06:32:01.482Z,64436.0
2022-08-07T06:43:01.034Z,64834.0
2022-08-07T06:44:01.875Z,65232.0
2022-08-07T06:46:01.100Z,65434.0
2022-08-07T06:47:10.751Z,65535.0
2022-08-07T06:58:00.940Z,64473.6
2022-08-07T07:00:11.515Z,63412.2
2022-08-07T07:00:18.873Z,62083.6
2022-08-07T07:01:00.965Z,60755.0
2022-08-07T07:02:01.089Z,59426.4
2022-08-07T07:03:08.535Z,58882.5
2022-08-07T07:04:08.339Z,58338.5
2022-08-07T07:13:01.101Z,59399.9
2022-08-07T07:14:02.412Z,60461.3
2022-08-07T07:15:26.282Z,61789.9
2022-08-07T07:16:00.966Z,63118.5
2022-08-07T07:17:01.006Z,64447.1
2022-08-07T07:18:00.977Z,64991.1
2022-08-07T07:19:04.223Z,65535.0
2022-08-07T07:30:40.290Z,65535.0
2022-08-07T08:15:07.616Z,65535.0
2022-08-07T09:00:02.589Z,65535.0
2022-08-07T09:16:21.015Z,65535.0
2022-08-07T09:30:09.834Z,65535.0
2022-08-07T09:47:26.697Z,65535.0
2022-08-07T10:15:03.516Z,65535.0
2022-08-07T10:45:02.138Z,65535.0
2022-08-07T11:00:02.500Z,65535.0
2022-08-07T11:15:01.934Z,65535.0
2022-08-07T11:30:18.141Z,65535.0
2022-08-07T12:00:18.910Z,65535.0
2022-08-07T12:15:03.954Z,65535.0
2022-08-07T12:30:02.811Z,65535.0
2022-08-07T13:00:02.683Z,65535.0
2022-08-07T13:15:01.678Z,65535.0
2022-08-07T13:30:04.704Z,65535.0
2022-08-07T13:46:07.440Z,65535.0
2022-08-07T14:00:03.339Z,65535.0
2022-08-07T14:15:01.678Z,65535.0
2022-08-07T14:30:14.475Z,65535.0
2022-08-07T14:45:21.000Z,65535.0
2022-08-07T15:00:20.925Z,65535.0
2022-08-07T16:10:03.303Z,65535.0
2022-08-07T16:30:29.124Z,65535.0
2022-08-07T16:46:10.951Z,65535.0
2022-08-07T17:00:02.186Z,65535.0
2022-08-07T17:15:01.028Z,65535.0
2022-08-07T17:28:00.612Z,65481.5
2022-08-07T17:29:05.336Z,65428.1
2022-08-07T17:30:19.161Z,65374.6
2022-08-07T17:31:00.329Z,65292.1
2022-08-07T17:32:02.988Z,65209.5
2022-08-07T17:33:00.541Z,64955.8
2022-08-07T17:34:10.538Z,64702.1
2022-08-07T17:35:41.530Z,64448.3
2022-08-07T17:36:00.340Z,63865.0
2022-08-07T17:37:14.208Z,63281.7
2022-08-07T17:38:07.384Z,62321.5
2022-08-07T17:39:00.376Z,61361.3
2022-08-07T17:40:12.516Z,60401.1
2022-08-07T17:41:00.396Z,59211.1
2022-08-07T17:42:01.408Z,58021.2
2022-08-07T17:43:00.751Z,56632.3
2022-08-07T17:44:02.062Z,55243.5
2022-08-07T17:45:01.258Z,53854.6
2022-08-07T17:46:00.371Z,52311.7
2022-08-07T17:47:00.344Z,50768.9
2022-08-07T17:48:00.860Z,49203.3
2022-08-07T17:49:00.336Z,47637.8
2022-08-07T17:50:01.150Z,46072.3
2022-08-07T17:51:01.624Z,44733.5
2022-08-07T17:52:01.527Z,43394.7
2022-08-07T17:53:00.752Z,42308.5
2022-08-07T17:54:06.245Z,41222.4
2022-08-07T17:56:06.307Z,39115.6
2022-08-07T17:57:00.344Z,38094.9
2022-08-07T17:58:01.750Z,37326.7
2022-08-07T17:59:00.337Z,36358.3
2022-08-07T18:01:00.405Z,34439.8
2022-08-07T18:02:00.380Z,33489.6
2022-08-07T18:03:00.551Z,32733.3
2022-08-07T18:04:04.796Z,31825.3
2022-08-07T18:05:21.111Z,30917.4
2022-08-07T18:06:02.539Z,29985.3
2022-08-07T18:07:19.672Z,29053.1
2022-08-07T18:08:00.468Z,28245.2
2022-08-07T18:09:05.617Z,27305.1
2022-08-07T18:10:32.924Z,26364.9
2022-08-07T18:12:08.629Z,25498.4
2022-08-07T18:12:08.759Z,24631.9
2022-08-07T18:13:00.584Z,23765.3
2022-08-07T18:14:01.462Z,23029.7
2022-08-07T18:15:00.971Z,22294.1
2022-08-07T18:16:00.366Z,21667.3
2022-08-07T18:17:00.347Z,21040.5
2022-08-07T18:18:33.232Z,20413.7
2022-08-07T18:21:04.712Z,19876.2
2022-08-07T18:21:04.813Z,19338.7
2022-08-07T18:21:05.013Z,18864.7
2022-08-07T18:22:02.819Z,18390.7
2022-08-07T18:23:00.549Z,17916.7
2022-08-07T18:24:00.345Z,17528.6
2022-08-07T18:25:19.586Z,17140.5
2022-08-07T18:26:00.918Z,16796.3
2022-08-07T18:27:00.350Z,16452.1
2022-08-07T18:28:00.555Z,16107.9
2022-08-07T18:29:00.342Z,15759.7
2022-08-07T18:30:32.123Z,15411.5
2022-08-07T18:31:00.389Z,15043.5
2022-08-07T18:32:00.402Z,14675.4
2022-08-07T18:33:10.610Z,14307.3
2022-08-07T18:34:00.348Z,13945.5
2022-08-07T18:35:02.508Z,13583.7
2022-08-07T18:36:00.389Z,13237.3
2022-08-07T18:37:00.349Z,12890.9
2022-08-07T18:38:54.542Z,12544.5
2022-08-07T18:39:01.655Z,12169.6
2022-08-07T18:40:40.646Z,11794.7
2022-08-07T18:41:03.934Z,11413.9
2022-08-07T18:42:00.384Z,11033.1
2022-08-07T18:43:00.643Z,10652.3
2022-08-07T18:44:00.349Z,10310.2
2022-08-07T18:45:40.637Z,9968.1
2022-08-07T18:46:22.297Z,9672.5
2022-08-07T18:47:01.345Z,9376.9
2022-08-07T18:48:01.809Z,9081.3
2022-08-07T18:50:06.692Z,8807.4
2022-08-07T18:50:30.866Z,8533.5
2022-08-07T18:51:00.403Z,8266.7
2022-08-07T18:52:25.932Z,7999.9
2022-08-07T18:53:04.893Z,7733.1
2022-08-07T18:54:00.354Z,7500.0
2022-08-07T18:55:41.495Z,7266.9
2022-08-07T18:56:00.366Z,7044.9
2022-08-07T18:57:29.952Z,6822.9
2022-08-07T18:58:00.509Z,6600.9
2022-08-07T18:59:00.362Z,6372.1
2022-08-07T19:00:32.248Z,6143.2
2022-08-07T19:01:00.791Z,5905.3
2022-08-07T19:02:17.888Z,5667.5
2022-08-07T19:03:01.594Z,5429.6
2022-08-07T19:04:00.503Z,5191.2
2022-08-07T19:05:17.490Z,4952.8
2022-08-07T19:06:03.021Z,4722.9
2022-08-07T19:07:00.361Z,4493.1
2022-08-07T19:08:03.883Z,4263.2
2022-08-07T19:09:00.352Z,4046.0
2022-08-07T19:10:00.797Z,3828.8
2022-08-07T19:11:06.893Z,3627.6
2022-08-07T19:12:04.380Z,3426.4
2022-08-07T19:13:09.983Z,3225.2
2022-08-07T19:14:00.365Z,3042.9
2022-08-07T19:15:22.912Z,2860.5
2022-08-07T19:16:04.006Z,2693.8
2022-08-07T19:17:08.349Z,2527.1
2022-08-07T19:18:03.116Z,2360.3
2022-08-07T19:19:00.349Z,2207.5
2022-08-07T19:20:01.657Z,2054.6
2022-08-07T19:21:08.846Z,1917.1
2022-08-07T19:22:04.545Z,1779.5
2022-08-07T19:23:03.214Z,1642.0
2022-08-07T19:24:00.493Z,1516.0
2022-08-07T19:25:08.762Z,1390.0
2022-08-07T19:26:22.580Z,1277.9
2022-08-07T19:28:28.901Z,1165.9
2022-08-07T19:28:31.381Z,1053.8
2022-08-07T19:30:54.884Z,955.1
2022-08-07T19:30:59.845Z,856.5
2022-08-07T19:32:17.200Z,692.1
2022-08-07T19:33:00.753Z,609.9
2022-08-07T19:34:00.367Z,543.9
2022-08-07T19:35:00.367Z,478.0
2022-08-07T19:36:00.357Z,425.8
2022-08-07T19:37:10.458Z,373.6
2022-08-07T19:38:01.553Z,321.4
2022-08-07T19:39:00.412Z,283.7
2022-08-07T19:41:00.353Z,218.5
2022-08-07T19:42:05.598Z,191.0
2022-08-07T19:43:00.602Z,163.5
2022-08-07T19:44:00.373Z,143.9
2022-08-07T19:46:05.213Z,110.3
2022-08-07T19:47:00.386Z,96.3
2022-08-07T19:48:00.570Z,82.3
2022-08-07T19:49:00.370Z,72.5
2022-08-07T19:50:03.133Z,62.8
2022-08-07T19:51:00.418Z,56.1
2022-08-07T19:52:00.876Z,49.3
2022-08-07T19:53:00.926Z,42.6
2022-08-07T19:54:30.463Z,37.9
2022-08-07T19:55:00.377Z,33.3
2022-08-07T19:56:00.489Z,29.9
2022-08-07T19:57:52.871Z,26.5
2022-08-07T19:58:12.711Z,23.1
2022-08-07T19:59:00.396Z,20.6
2022-08-07T20:01:01.787Z,16.4
2022-08-07T20:02:00.388Z,14.7
2022-08-07T20:03:00.592Z,12.9
2022-08-07T20:04:00.455Z,11.6
2022-08-07T20:05:00.606Z,10.3
2022-08-07T20:06:02.077Z,9.3
2022-08-07T20:07:00.393Z,8.3
2022-08-07T20:08:00.580Z,7.3
2022-08-07T20:09:00.400Z,6.5
2022-08-07T20:10:34.543Z,5.7
2022-08-07T20:11:01.761Z,5.1
2022-08-07T20:12:01.258Z,4.6
2022-08-07T20:13:00.511Z,4.1
2022-08-07T20:14:00.383Z,3.6
2022-08-07T20:15:00.891Z,3.1
2022-08-07T20:16:00.369Z,2.8
2022-08-07T20:17:00.407Z,2.5
2022-08-07T20:18:01.431Z,2.1
2022-08-07T20:19:00.375Z,1.9
2022-08-07T20:20:00.591Z,1.7
2022-08-07T20:21:00.376Z,1.5
2022-08-07T20:22:00.408Z,1.3
2022-08-07T20:23:00.581Z,1.1
2022-08-07T20:24:00.716Z,1.0
2022-08-07T20:25:00.388Z,0.9
2022-08-07T20:26:00.373Z,0.7
2022-08-07T20:27:00.394Z,0.6
2022-08-07T20:28:03.455Z,0.5
2022-08-07T20:29:00.376Z,0.4
2022-08-07T20:32:00.515Z,0.2
2022-08-07T20:33:00.584Z,0.1
